createdAt,value
2023-05-23T00:00:53.281Z,76703.13
2023-05-23T00:02:26.273Z,76707.09
2023-05-23T00:04:00.065Z,76722.91
2023-05-23T00:05:33.755Z,76722.91
2023-05-23T00:07:07.028Z,76738.72
2023-05-23T00:08:40.359Z,76734.78
2023-05-23T00:10:14.830Z,76736.75
2023-05-23T00:11:48.425Z,76722.91
2023-05-23T00:13:22.056Z,76711.03
2023-05-23T00:14:55.858Z,76709.06
2023-05-23T00:16:30.934Z,76711.03
2023-05-23T00:18:05.333Z,76713.03
2023-05-23T00:19:41.834Z,76715.00
2023-05-23T00:21:15.308Z,76715.00
2023-05-23T00:22:49.888Z,76703.13
2023-05-23T00:24:23.872Z,76681.38
2023-05-23T00:25:59.030Z,76671.50
2023-05-23T00:27:32.400Z,76671.50
2023-05-23T00:29:06.228Z,76661.59
2023-05-23T00:30:40.104Z,76655.66
2023-05-23T00:32:13.604Z,76655.66
2023-05-23T00:33:47.074Z,76655.66
2023-05-23T00:35:27.034Z,76655.66
2023-05-23T00:37:00.559Z,76667.53
2023-05-23T00:38:34.394Z,76665.56
2023-05-23T00:40:08.666Z,76655.66
2023-05-23T00:41:42.236Z,76675.44
2023-05-23T00:43:16.903Z,76695.22
2023-05-23T00:44:50.550Z,76659.63
2023-05-23T00:46:24.106Z,76659.63
2023-05-23T00:47:59.860Z,76635.91
2023-05-23T00:49:33.976Z,76631.94
2023-05-23T00:51:07.615Z,76578.56
2023-05-23T00:52:41.820Z,76544.94
2023-05-23T00:54:17.500Z,76529.13
2023-05-23T00:55:51.958Z,76533.06
2023-05-23T00:57:26.464Z,76540.97
2023-05-23T00:59:01.259Z,76497.47
2023-05-23T01:00:36.090Z,76497.47
2023-05-23T01:02:10.170Z,76473.75
2023-05-23T01:03:46.128Z,76434.19
2023-05-23T01:05:23.077Z,76394.66
2023-05-23T01:06:57.133Z,76378.84
2023-05-23T01:08:30.638Z,76339.28
2023-05-23T01:10:05.795Z,76311.63
2023-05-23T01:12:03.222Z,76272.06
2023-05-23T01:13:57.938Z,76260.22
2023-05-23T01:15:46.692Z,76187.03
2023-05-23T01:17:42.449Z,76161.34
2023-05-23T01:19:16.278Z,76129.72
2023-05-23T01:21:00.212Z,76086.22
2023-05-23T01:23:01.430Z,76074.34
2023-05-23T01:24:55.688Z,76030.84
2023-05-23T01:26:42.956Z,76005.16
2023-05-23T01:28:20.679Z,75943.88
2023-05-23T01:29:59.608Z,75910.25
2023-05-23T01:31:35.490Z,75904.31
2023-05-23T01:33:10.134Z,75876.63
2023-05-23T01:34:44.358Z,75856.88
2023-05-23T01:36:18.369Z,75815.34
2023-05-23T01:37:53.198Z,75750.13
2023-05-23T01:39:26.864Z,75738.25
2023-05-23T01:41:00.280Z,75698.72
2023-05-23T01:42:33.778Z,75694.75
2023-05-23T01:44:08.346Z,75682.91
2023-05-23T01:45:42.492Z,75667.06
2023-05-23T01:47:17.073Z,75611.72
2023-05-23T01:48:52.355Z,75588.00
2023-05-23T01:50:26.269Z,75556.38
2023-05-23T01:52:02.357Z,75530.66
2023-05-23T01:53:37.585Z,75504.97
2023-05-23T01:55:12.799Z,75528.69
2023-05-23T01:56:46.897Z,75504.97
2023-05-23T01:58:20.676Z,75504.97
2023-05-23T01:59:54.068Z,75491.13
2023-05-23T02:01:27.705Z,75433.81
2023-05-23T02:03:01.112Z,75418.00
2023-05-23T02:04:35.400Z,75390.31
2023-05-23T02:06:09.125Z,75394.28
2023-05-23T02:07:43.270Z,75319.16
2023-05-23T02:09:17.272Z,75303.34
2023-05-23T02:10:51.691Z,75287.53
2023-05-23T02:12:27.489Z,75236.13
2023-05-23T02:14:01.586Z,75196.59
2023-05-23T02:15:35.844Z,75141.25
2023-05-23T02:17:12.831Z,75101.72
2023-05-23T02:18:47.719Z,75050.31
2023-05-23T02:20:21.628Z,75034.50
2023-05-23T02:21:55.056Z,75034.50
2023-05-23T02:23:28.387Z,74965.31
2023-05-23T02:25:01.899Z,74939.63
2023-05-23T02:26:36.046Z,74870.44
2023-05-23T02:28:09.627Z,74925.78
2023-05-23T02:29:43.317Z,74864.53
2023-05-23T02:31:17.776Z,74852.66
2023-05-23T02:32:52.409Z,74830.91
2023-05-23T02:34:26.240Z,74819.06
2023-05-23T02:35:59.929Z,74751.84
2023-05-23T02:37:33.428Z,74724.19
2023-05-23T02:39:07.681Z,74658.97
2023-05-23T02:40:41.394Z,74668.84
2023-05-23T02:42:15.087Z,74639.19
2023-05-23T02:43:48.646Z,74627.34
2023-05-23T02:45:23.220Z,74629.31
2023-05-23T02:46:56.519Z,74560.16
2023-05-23T02:48:29.935Z,74544.34
2023-05-23T02:50:03.755Z,74635.25
2023-05-23T02:51:38.135Z,74536.44
2023-05-23T02:53:11.843Z,74489.00
2023-05-23T02:54:45.649Z,74489.00
2023-05-23T02:56:19.519Z,74449.47
2023-05-23T02:57:53.415Z,74449.47
2023-05-23T02:59:27.450Z,74447.50
2023-05-23T03:01:01.471Z,74453.41
2023-05-23T03:02:35.821Z,74433.66
2023-05-23T03:04:09.440Z,74415.88
2023-05-23T03:05:43.323Z,74328.91
2023-05-23T03:07:27.403Z,74362.50
2023-05-23T03:09:02.448Z,74370.41
2023-05-23T03:10:36.675Z,74372.41
2023-05-23T03:12:10.400Z,74407.97
2023-05-23T03:13:44.136Z,74352.63
2023-05-23T03:15:17.424Z,74324.97
2023-05-23T03:16:51.711Z,74461.31
2023-05-23T03:18:24.969Z,74407.97
2023-05-23T03:19:58.465Z,74398.09
2023-05-23T03:21:33.310Z,74372.41
2023-05-23T03:23:06.870Z,74429.72
2023-05-23T03:24:40.437Z,74328.91
2023-05-23T03:26:14.505Z,74469.22
2023-05-23T03:27:47.936Z,74372.41
2023-05-23T03:29:21.688Z,74267.66
2023-05-23T03:30:55.083Z,74188.59
2023-05-23T03:32:28.779Z,74172.78
2023-05-23T03:34:02.970Z,74255.78
2023-05-23T03:35:36.694Z,74311.13
2023-05-23T03:37:10.576Z,74160.94
2023-05-23T03:38:44.721Z,74170.81
2023-05-23T03:40:18.436Z,74283.47
2023-05-23T03:41:52.717Z,74271.59
2023-05-23T03:43:26.693Z,74137.22
2023-05-23T03:45:00.437Z,74172.78
2023-05-23T03:46:35.287Z,74348.69
2023-05-23T03:48:09.515Z,74265.69
2023-05-23T03:49:42.989Z,74200.47
2023-05-23T03:51:16.586Z,74141.16
2023-05-23T03:52:49.922Z,74115.47
2023-05-23T03:54:23.547Z,74178.72
2023-05-23T03:55:58.704Z,74127.34
2023-05-23T03:57:32.984Z,74034.47
2023-05-23T03:59:06.804Z,74079.91
2023-05-23T04:00:40.303Z,73992.97
2023-05-23T04:02:15.099Z,74010.75
2023-05-23T04:03:50.035Z,73882.31
2023-05-23T04:05:27.395Z,73943.56
2023-05-23T04:07:02.074Z,73937.63
2023-05-23T04:08:35.796Z,73911.94
2023-05-23T04:10:10.311Z,74101.66
2023-05-23T04:11:44.719Z,74176.75
2023-05-23T04:13:18.051Z,74095.72
2023-05-23T04:14:51.096Z,74101.66
2023-05-23T04:16:29.425Z,74105.59
2023-05-23T04:18:02.813Z,74147.09
2023-05-23T04:19:36.600Z,74216.28
2023-05-23T04:21:10.608Z,74129.31
2023-05-23T04:22:51.030Z,74192.56
2023-05-23T04:24:24.972Z,74287.41
2023-05-23T04:25:58.773Z,74216.28
2023-05-23T04:27:37.731Z,74117.47
2023-05-23T04:29:14.970Z,74081.88
2023-05-23T04:30:50.028Z,74119.44
2023-05-23T04:32:27.929Z,74123.38
2023-05-23T04:34:01.376Z,74018.66
2023-05-23T04:35:39.472Z,73969.25
2023-05-23T04:37:14.577Z,74008.78
2023-05-23T04:38:48.121Z,74006.78
2023-05-23T04:40:21.629Z,74002.84
2023-05-23T04:42:24.971Z,74085.84
2023-05-23T04:44:11.313Z,74036.44
2023-05-23T04:45:54.851Z,74212.31
2023-05-23T04:47:37.792Z,74133.28
2023-05-23T04:49:15.661Z,73927.75
2023-05-23T04:50:51.630Z,73994.94
2023-05-23T04:52:26.263Z,73947.50
2023-05-23T04:54:00.424Z,74024.59
2023-05-23T04:55:34.632Z,74070.03
2023-05-23T04:57:09.058Z,74008.78
2023-05-23T04:58:42.578Z,73975.19
2023-05-23T05:00:18.442Z,73866.50
2023-05-23T05:01:52.155Z,73795.34
2023-05-23T05:03:26.808Z,73890.19
2023-05-23T05:05:00.399Z,73848.72
2023-05-23T05:06:33.879Z,73755.84
2023-05-23T05:08:07.385Z,74060.16
2023-05-23T05:09:41.641Z,74024.59
2023-05-23T05:11:17.690Z,73971.22
2023-05-23T05:12:51.143Z,74002.84
2023-05-23T05:14:27.131Z,74056.19
2023-05-23T05:16:01.284Z,73994.94
2023-05-23T05:17:37.317Z,74085.84
2023-05-23T05:19:14.117Z,73996.91
2023-05-23T05:20:47.783Z,73943.56
2023-05-23T05:22:22.294Z,73785.47
2023-05-23T05:23:55.742Z,73828.94
2023-05-23T05:25:32.655Z,73888.22
2023-05-23T05:27:06.688Z,73870.44
2023-05-23T05:28:40.183Z,74050.28
2023-05-23T05:30:14.072Z,74036.44
2023-05-23T05:32:01.676Z,74073.97
2023-05-23T05:33:38.207Z,74200.47
2023-05-23T05:35:29.998Z,74089.78
2023-05-23T05:37:03.337Z,73874.41
2023-05-23T05:38:36.641Z,73917.88
2023-05-23T05:40:10.764Z,73864.50
2023-05-23T05:41:48.614Z,73840.81
2023-05-23T05:43:22.961Z,73943.56
2023-05-23T05:44:56.197Z,73832.91
2023-05-23T05:46:29.665Z,73730.16
2023-05-23T05:48:03.699Z,73809.19
2023-05-23T05:49:37.582Z,73700.50
2023-05-23T05:51:13.842Z,73730.16
2023-05-23T05:52:48.956Z,73690.63
2023-05-23T05:54:22.758Z,73623.44
2023-05-23T05:55:56.868Z,73728.16
2023-05-23T05:57:30.717Z,73975.19
2023-05-23T05:59:04.524Z,73975.19
2023-05-23T06:00:42.987Z,73965.28
2023-05-23T06:02:17.188Z,73917.88
2023-05-23T06:03:51.663Z,73971.22
2023-05-23T06:05:27.361Z,73971.22
2023-05-23T06:07:00.750Z,73945.53
2023-05-23T06:08:35.781Z,73979.13
2023-05-23T06:10:09.894Z,73977.16
2023-05-23T06:11:43.024Z,73998.88
2023-05-23T06:13:16.493Z,74081.88
2023-05-23T06:14:53.486Z,74042.38
2023-05-23T06:16:26.750Z,73844.75
2023-05-23T06:18:00.302Z,73805.22
2023-05-23T06:19:34.417Z,74060.16
2023-05-23T06:21:08.027Z,74174.78
2023-05-23T06:22:42.623Z,74164.88
2023-05-23T06:24:16.184Z,74147.09
2023-05-23T06:25:49.782Z,74034.47
2023-05-23T06:27:23.027Z,73983.09
2023-05-23T06:28:56.031Z,74014.69
2023-05-23T06:30:30.344Z,74042.38
2023-05-23T06:32:04.038Z,74210.34
2023-05-23T06:33:37.199Z,74245.91
2023-05-23T06:35:10.728Z,74176.75
2023-05-23T06:36:44.017Z,74139.19
2023-05-23T06:38:17.970Z,74042.38
2023-05-23T06:39:51.447Z,74046.31
2023-05-23T06:41:24.871Z,74206.38
2023-05-23T06:43:00.033Z,74077.94
2023-05-23T06:44:45.363Z,74107.56
2023-05-23T06:46:18.776Z,74123.38
2023-05-23T06:47:52.505Z,74168.84
2023-05-23T06:49:26.489Z,74243.94
2023-05-23T06:51:00.107Z,74283.47
2023-05-23T06:52:34.356Z,74307.19
2023-05-23T06:54:11.691Z,74346.69
2023-05-23T06:55:45.589Z,74330.88
2023-05-23T06:57:21.480Z,74402.03
2023-05-23T06:58:55.407Z,74350.66
2023-05-23T07:00:28.801Z,74350.66
2023-05-23T07:02:19.394Z,74299.28
2023-05-23T07:03:53.478Z,74322.97
2023-05-23T07:05:28.643Z,74360.53
2023-05-23T07:07:05.013Z,74368.44
2023-05-23T07:08:39.648Z,74366.47
2023-05-23T07:10:13.592Z,74368.44
2023-05-23T07:11:47.336Z,74334.84
2023-05-23T07:13:21.572Z,74283.47
2023-05-23T07:14:55.252Z,74322.97
2023-05-23T07:16:30.843Z,74362.50
2023-05-23T07:18:09.187Z,74376.34
2023-05-23T07:19:42.755Z,74425.75
2023-05-23T07:21:16.672Z,74386.22
2023-05-23T07:22:53.210Z,74409.94
2023-05-23T07:24:26.509Z,74469.22
2023-05-23T07:26:03.510Z,74461.31
2023-05-23T07:27:47.879Z,74378.31
2023-05-23T07:29:21.739Z,74370.41
2023-05-23T07:30:58.829Z,74344.72
2023-05-23T07:32:32.509Z,74273.59
2023-05-23T07:34:06.245Z,74281.47
2023-05-23T07:35:46.802Z,74354.59
2023-05-23T07:37:20.147Z,74354.59
2023-05-23T07:38:54.083Z,74334.84
2023-05-23T07:40:27.675Z,74279.50
2023-05-23T07:42:01.544Z,74251.84
2023-05-23T07:43:34.720Z,74198.47
2023-05-23T07:45:08.735Z,74224.19
2023-05-23T07:46:47.134Z,74196.50
2023-05-23T07:48:21.041Z,74160.94
2023-05-23T07:49:54.841Z,74313.09
2023-05-23T07:51:28.965Z,74251.84
2023-05-23T07:53:02.460Z,74216.28
2023-05-23T07:54:37.087Z,74222.19
2023-05-23T07:56:14.523Z,74176.75
2023-05-23T07:57:50.005Z,74222.19
2023-05-23T07:59:23.927Z,74247.88
2023-05-23T08:01:01.334Z,74275.56
2023-05-23T08:02:54.312Z,74380.28
2023-05-23T08:04:34.424Z,74417.84
2023-05-23T08:06:09.339Z,74433.66
2023-05-23T08:07:42.540Z,74338.78
2023-05-23T08:09:17.309Z,74370.41
2023-05-23T08:10:57.862Z,74382.28
2023-05-23T08:12:36.262Z,74319.03
2023-05-23T08:14:17.121Z,74285.44
2023-05-23T08:16:00.563Z,74386.22
2023-05-23T08:17:36.877Z,74315.09
2023-05-23T08:19:10.386Z,74283.47
2023-05-23T08:20:44.369Z,74232.06
2023-05-23T08:22:17.783Z,74228.13
2023-05-23T08:23:51.055Z,74196.50
2023-05-23T08:25:25.542Z,74243.94
2023-05-23T08:26:59.322Z,74319.03
2023-05-23T08:28:35.083Z,74368.44
2023-05-23T08:30:10.828Z,74392.16
2023-05-23T08:31:44.845Z,74437.63
2023-05-23T08:33:18.645Z,74332.88
2023-05-23T08:34:54.429Z,74303.22
2023-05-23T08:36:27.827Z,74324.97
2023-05-23T08:38:02.409Z,74238.00
2023-05-23T08:39:36.426Z,74261.72
2023-05-23T08:41:31.897Z,74354.59
2023-05-23T08:43:11.376Z,74409.94
2023-05-23T08:44:48.385Z,74315.09
2023-05-23T08:46:27.914Z,74380.28
2023-05-23T08:48:02.869Z,74457.38
2023-05-23T08:49:39.580Z,74370.41
2023-05-23T08:51:16.368Z,74374.38
2023-05-23T08:52:57.535Z,74344.72
2023-05-23T08:54:33.087Z,74425.75
2023-05-23T08:56:07.339Z,74425.75
2023-05-23T08:57:48.572Z,74372.41
2023-05-23T08:59:42.492Z,74370.41
2023-05-23T09:01:18.683Z,74388.19
2023-05-23T09:02:51.984Z,74380.28
2023-05-23T09:04:44.143Z,74328.91
2023-05-23T09:06:22.520Z,74330.88
2023-05-23T09:07:57.123Z,74322.97
2023-05-23T09:09:32.380Z,74326.94
2023-05-23T09:11:09.313Z,74273.59
2023-05-23T09:12:44.896Z,74247.88
2023-05-23T09:14:18.671Z,74212.31
2023-05-23T09:16:04.224Z,74249.88
2023-05-23T09:17:43.877Z,74236.03
2023-05-23T09:19:17.157Z,74236.03
2023-05-23T09:20:56.997Z,74366.47
2023-05-23T09:22:30.818Z,74429.72
2023-05-23T09:24:08.579Z,74463.31
2023-05-23T09:25:48.813Z,74489.00
2023-05-23T09:27:22.740Z,74439.59
2023-05-23T09:28:59.915Z,74402.03
2023-05-23T09:30:35.092Z,74348.69
2023-05-23T09:32:13.317Z,74390.19
2023-05-23T09:33:49.044Z,74433.66
2023-05-23T09:35:23.693Z,74433.66
2023-05-23T09:36:57.489Z,74364.50
2023-05-23T09:38:31.107Z,74291.38
2023-05-23T09:40:13.780Z,74289.38
2023-05-23T09:41:53.464Z,74279.50
2023-05-23T09:43:29.826Z,74291.38
2023-05-23T09:45:04.913Z,74273.59
2023-05-23T09:46:41.572Z,74267.66
2023-05-23T09:48:16.120Z,74253.81
2023-05-23T09:49:51.834Z,74247.88
2023-05-23T09:51:26.344Z,74220.22
2023-05-23T09:53:00.987Z,74283.47
2023-05-23T09:54:34.178Z,74263.69
2023-05-23T09:56:12.250Z,74251.84
2023-05-23T09:57:46.380Z,74198.47
2023-05-23T09:59:24.804Z,74172.78
2023-05-23T10:01:01.187Z,74210.34
2023-05-23T10:03:15.231Z,74275.56
2023-05-23T10:04:48.993Z,74257.78
2023-05-23T10:06:25.055Z,74249.88
2023-05-23T10:08:02.185Z,74255.78
2023-05-23T10:09:38.683Z,74291.38
2023-05-23T10:11:15.204Z,74243.94
2023-05-23T10:12:56.287Z,74232.06
2023-05-23T10:14:32.001Z,74228.13
2023-05-23T10:16:44.277Z,74247.88
2023-05-23T10:18:24.380Z,74239.97
2023-05-23T10:20:12.762Z,74238.00
2023-05-23T10:21:51.846Z,74263.69
2023-05-23T10:23:25.281Z,74220.22
2023-05-23T10:24:58.544Z,74224.19
2023-05-23T10:26:32.258Z,74208.38
2023-05-23T10:28:06.124Z,74239.97
2023-05-23T10:29:39.775Z,74313.09
2023-05-23T10:31:13.377Z,74425.75
2023-05-23T10:32:47.527Z,74396.09
2023-05-23T10:34:55.893Z,74374.38
2023-05-23T10:36:42.898Z,74313.09
2023-05-23T10:38:41.731Z,74321.00
2023-05-23T10:40:32.751Z,74358.56
2023-05-23T10:42:16.768Z,74362.50
2023-05-23T10:44:02.997Z,74338.78
2023-05-23T10:45:45.894Z,74295.31
2023-05-23T10:47:29.282Z,74295.31
2023-05-23T10:49:04.129Z,74283.47
2023-05-23T10:50:37.740Z,74259.75
2023-05-23T10:52:17.304Z,74251.84
2023-05-23T10:53:55.591Z,74243.94
2023-05-23T10:55:32.629Z,74326.94
2023-05-23T10:57:06.670Z,74334.84
2023-05-23T10:58:40.234Z,74451.44
2023-05-23T11:00:16.379Z,74443.53
2023-05-23T11:01:52.757Z,74360.53
2023-05-23T11:03:51.968Z,74315.09
2023-05-23T11:05:32.122Z,74413.91
2023-05-23T11:07:05.454Z,74398.09
2023-05-23T11:08:48.612Z,74406.00
2023-05-23T11:10:22.250Z,74338.78
2023-05-23T11:11:58.440Z,74354.59
2023-05-23T11:14:09.752Z,74319.03
2023-05-23T11:15:45.455Z,74319.03
2023-05-23T11:17:20.451Z,74293.34
2023-05-23T11:19:17.330Z,74315.09
2023-05-23T11:20:54.539Z,74342.75
2023-05-23T11:22:31.192Z,74307.19
2023-05-23T11:24:04.629Z,74271.59
2023-05-23T11:25:44.944Z,74279.50
2023-05-23T11:27:26.452Z,74259.75
2023-05-23T11:29:00.308Z,74255.78
2023-05-23T11:30:34.290Z,74259.75
2023-05-23T11:32:17.606Z,74267.66
2023-05-23T11:33:55.004Z,74261.72
2023-05-23T11:35:31.672Z,74265.69
2023-05-23T11:37:08.696Z,74321.00
2023-05-23T11:38:41.961Z,74342.75
2023-05-23T11:40:33.258Z,74352.63
2023-05-23T11:42:07.114Z,74324.97
2023-05-23T11:43:53.420Z,74315.09
2023-05-23T11:45:28.781Z,74307.19
2023-05-23T11:47:07.301Z,74330.88
2023-05-23T11:48:48.279Z,74350.66
2023-05-23T11:50:21.705Z,74382.28
2023-05-23T11:51:55.181Z,74406.00
2023-05-23T11:53:29.359Z,74469.22
2023-05-23T11:55:03.905Z,74411.91
2023-05-23T11:56:41.235Z,74386.22
2023-05-23T11:58:14.349Z,74344.72
2023-05-23T11:59:47.790Z,74366.47
2023-05-23T12:01:21.685Z,74338.78
2023-05-23T12:02:54.813Z,74319.03
2023-05-23T12:04:28.125Z,74344.72
2023-05-23T12:06:02.776Z,74378.31
2023-05-23T12:07:37.157Z,74364.50
2023-05-23T12:09:13.406Z,74348.69
2023-05-23T12:10:52.089Z,74356.59
2023-05-23T12:12:25.387Z,74372.41
2023-05-23T12:14:00.291Z,74334.84
2023-05-23T12:15:33.539Z,74358.56
2023-05-23T12:17:07.008Z,74398.09
2023-05-23T12:18:40.461Z,74378.31
2023-05-23T12:20:14.204Z,74362.50
2023-05-23T12:21:49.096Z,74322.97
2023-05-23T12:23:23.364Z,74303.22
2023-05-23T12:24:57.370Z,74315.09
2023-05-23T12:26:30.637Z,74315.09
2023-05-23T12:28:04.113Z,74326.94
2023-05-23T12:29:38.977Z,74311.13
2023-05-23T12:31:19.391Z,74317.06
2023-05-23T12:32:52.651Z,74319.03
2023-05-23T12:34:26.036Z,74354.59
2023-05-23T12:35:59.085Z,74328.91
2023-05-23T12:37:32.420Z,74342.75
2023-05-23T12:39:09.605Z,74319.03
2023-05-23T12:40:42.863Z,74319.03
2023-05-23T12:42:15.896Z,74311.13
2023-05-23T12:43:53.797Z,74309.16
2023-05-23T12:45:37.094Z,74295.31
2023-05-23T12:47:13.719Z,74305.19
2023-05-23T12:48:47.724Z,74342.75
2023-05-23T12:50:21.213Z,74358.56
2023-05-23T12:51:54.544Z,74354.59
2023-05-23T12:53:28.277Z,74354.59
2023-05-23T12:55:01.295Z,74413.91
2023-05-23T12:56:34.661Z,74390.19
2023-05-23T12:58:07.469Z,74402.03
2023-05-23T12:59:40.456Z,74378.31
2023-05-23T13:01:14.547Z,74384.25
2023-05-23T13:02:48.515Z,74406.00
2023-05-23T13:04:21.835Z,74431.69
2023-05-23T13:05:55.099Z,74453.41
2023-05-23T13:07:28.147Z,74447.50
2023-05-23T13:09:01.463Z,74417.84
2023-05-23T13:10:34.438Z,74402.03
2023-05-23T13:12:07.690Z,74407.97
2023-05-23T13:13:40.591Z,74390.19
2023-05-23T13:15:13.923Z,74394.13
2023-05-23T13:16:47.135Z,74380.28
2023-05-23T13:18:20.384Z,74378.31
2023-05-23T13:19:53.583Z,74368.44
2023-05-23T13:21:28.064Z,74411.91
2023-05-23T13:23:01.295Z,74396.09
2023-05-23T13:24:36.590Z,74417.84
2023-05-23T13:26:09.644Z,74425.75
2023-05-23T13:27:42.847Z,74429.72
2023-05-23T13:29:15.947Z,74417.84
2023-05-23T13:30:49.386Z,74445.50
2023-05-23T13:32:22.815Z,74455.41
2023-05-23T13:33:56.715Z,74469.22
2023-05-23T13:35:29.746Z,74483.06
2023-05-23T13:37:02.721Z,74487.03
2023-05-23T13:38:35.882Z,74477.13
2023-05-23T13:40:12.767Z,74490.97
2023-05-23T13:41:46.012Z,74483.06
2023-05-23T13:43:19.048Z,74500.84
2023-05-23T13:44:52.027Z,74512.72
2023-05-23T13:46:25.527Z,74489.00
2023-05-23T13:47:59.408Z,74489.00
2023-05-23T13:49:32.843Z,74481.09
2023-05-23T13:51:06.407Z,74485.03
2023-05-23T13:52:43.466Z,74512.72
2023-05-23T13:54:18.393Z,74524.56
2023-05-23T13:55:52.371Z,74520.63
2023-05-23T13:57:25.879Z,74508.75
2023-05-23T13:59:00.365Z,74500.84
2023-05-23T14:00:33.755Z,74504.81
2023-05-23T14:02:08.543Z,74524.56
2023-05-23T14:03:42.758Z,74528.53
2023-05-23T14:05:17.217Z,74540.38
2023-05-23T14:06:51.461Z,74532.47
2023-05-23T14:08:24.566Z,74524.56
2023-05-23T14:09:58.236Z,74528.53
2023-05-23T14:11:32.185Z,74524.56
2023-05-23T14:13:07.464Z,74552.25
2023-05-23T14:14:41.326Z,74530.50
2023-05-23T14:16:14.814Z,74536.44
2023-05-23T14:17:49.357Z,74532.47
2023-05-23T14:19:22.988Z,74548.28
2023-05-23T14:20:56.401Z,74579.91
2023-05-23T14:22:29.780Z,74581.88
2023-05-23T14:24:03.720Z,74605.59
2023-05-23T14:25:37.350Z,74591.78
2023-05-23T14:27:11.400Z,74595.72
2023-05-23T14:28:45.099Z,74627.34
2023-05-23T14:30:19.473Z,74607.59
2023-05-23T14:31:53.045Z,74607.59
2023-05-23T14:33:26.840Z,74627.34
2023-05-23T14:35:00.542Z,74619.44
2023-05-23T14:36:34.171Z,74619.44
2023-05-23T14:38:07.560Z,74619.44
2023-05-23T14:39:41.428Z,74629.31
2023-05-23T14:41:15.057Z,74633.28
2023-05-23T14:42:51.679Z,74635.25
2023-05-23T14:44:25.154Z,74643.16
2023-05-23T14:46:00.495Z,74655.00
2023-05-23T14:47:34.351Z,74657.00
2023-05-23T14:49:08.301Z,74651.06
2023-05-23T14:50:43.070Z,74647.09
2023-05-23T14:52:17.884Z,74658.97
2023-05-23T14:53:51.896Z,74658.97
2023-05-23T14:55:26.649Z,74658.97
2023-05-23T14:57:00.146Z,74662.91
2023-05-23T14:58:34.047Z,74670.81
2023-05-23T15:00:08.456Z,74680.72
2023-05-23T15:01:44.745Z,74678.72
2023-05-23T15:03:19.037Z,74682.69
2023-05-23T15:04:52.879Z,74694.53
2023-05-23T15:06:26.184Z,74698.50
2023-05-23T15:07:59.477Z,74706.41
2023-05-23T15:09:32.855Z,74736.06
2023-05-23T15:11:06.392Z,74726.16
2023-05-23T15:12:39.910Z,74732.09
2023-05-23T15:14:13.883Z,74732.09
2023-05-23T15:15:49.731Z,74740.00
2023-05-23T15:17:26.606Z,74747.91
2023-05-23T15:19:01.157Z,74781.50
2023-05-23T15:20:35.911Z,74763.72
2023-05-23T15:22:15.812Z,74803.25
2023-05-23T15:23:56.403Z,74787.44
2023-05-23T15:25:47.190Z,74791.38
2023-05-23T15:27:24.995Z,74801.28
2023-05-23T15:28:58.688Z,74805.22
2023-05-23T15:30:36.778Z,74815.09
2023-05-23T15:32:13.309Z,74823.00
2023-05-23T15:33:48.501Z,74832.91
2023-05-23T15:35:23.295Z,74846.72
2023-05-23T15:36:57.059Z,74856.63
2023-05-23T15:38:30.476Z,74874.41
2023-05-23T15:40:04.478Z,74892.19
2023-05-23T15:41:38.094Z,74892.19
2023-05-23T15:43:11.758Z,74909.97
2023-05-23T15:44:45.189Z,74904.06
2023-05-23T15:46:19.445Z,74917.88
2023-05-23T15:47:53.031Z,74931.72
2023-05-23T15:49:27.356Z,74943.59
2023-05-23T15:51:01.611Z,74957.41
2023-05-23T15:52:35.300Z,74965.31
2023-05-23T15:54:09.048Z,74969.28
2023-05-23T15:55:42.956Z,74983.13
2023-05-23T15:57:16.727Z,74987.06
2023-05-23T15:58:50.028Z,74996.94
2023-05-23T16:00:23.524Z,75006.84
2023-05-23T16:01:57.502Z,75014.75
2023-05-23T16:03:30.854Z,75024.63
2023-05-23T16:05:04.502Z,75038.47
2023-05-23T16:06:39.765Z,75054.28
2023-05-23T16:08:13.107Z,75066.13
2023-05-23T16:09:46.508Z,75078.00
2023-05-23T16:11:20.292Z,75079.97
2023-05-23T16:12:53.976Z,75103.69
2023-05-23T16:14:27.240Z,75113.56
2023-05-23T16:16:00.521Z,75105.66
2023-05-23T16:17:34.341Z,75113.56
2023-05-23T16:19:07.830Z,75121.47
2023-05-23T16:20:41.198Z,75129.38
2023-05-23T16:22:14.603Z,75139.28
2023-05-23T16:23:49.643Z,75143.22
2023-05-23T16:25:23.819Z,75145.19
2023-05-23T16:26:57.253Z,75155.09
2023-05-23T16:28:30.859Z,75157.06
2023-05-23T16:30:05.318Z,75157.06
2023-05-23T16:31:39.533Z,75164.97
2023-05-23T16:33:12.876Z,75163.00
2023-05-23T16:34:52.675Z,75170.91
2023-05-23T16:36:28.889Z,75178.81
2023-05-23T16:38:02.194Z,75184.72
2023-05-23T16:39:35.603Z,75196.59
2023-05-23T16:41:09.037Z,75204.50
2023-05-23T16:42:42.747Z,75204.50
2023-05-23T16:44:16.360Z,75206.47
2023-05-23T16:45:50.033Z,75206.47
2023-05-23T16:47:23.816Z,75206.47
2023-05-23T16:48:57.920Z,75212.41
2023-05-23T16:50:31.261Z,75216.38
2023-05-23T16:52:04.735Z,75222.28
2023-05-23T16:53:38.074Z,75228.22
2023-05-23T16:55:11.843Z,75238.09
2023-05-23T16:56:45.406Z,75238.09
2023-05-23T16:58:20.944Z,75236.13
2023-05-23T16:59:54.705Z,75244.03
2023-05-23T17:01:30.774Z,75240.09
2023-05-23T17:03:05.166Z,75249.97
2023-05-23T17:04:38.623Z,75257.88
2023-05-23T17:06:11.846Z,75285.53
2023-05-23T17:07:45.771Z,75289.50
2023-05-23T17:09:19.736Z,75299.38
2023-05-23T17:10:53.664Z,75305.31
2023-05-23T17:12:27.183Z,75315.19
2023-05-23T17:14:00.659Z,75331.00
2023-05-23T17:15:33.908Z,75307.28
2023-05-23T17:17:07.195Z,75317.19
2023-05-23T17:18:40.515Z,75291.47
2023-05-23T17:20:14.257Z,75291.47
2023-05-23T17:21:47.848Z,75287.53
2023-05-23T17:23:21.093Z,75287.53
2023-05-23T17:24:54.246Z,75285.53
2023-05-23T17:26:28.365Z,75275.66
2023-05-23T17:28:01.632Z,75273.69
2023-05-23T17:29:34.953Z,75261.81
2023-05-23T17:31:08.850Z,75244.03
2023-05-23T17:32:43.805Z,75226.25
2023-05-23T17:34:17.385Z,75240.09
2023-05-23T17:35:50.527Z,75222.28
2023-05-23T17:37:26.211Z,75212.41
2023-05-23T17:39:00.203Z,75216.38
2023-05-23T17:40:33.553Z,75222.28
2023-05-23T17:42:07.393Z,75226.25
2023-05-23T17:43:43.243Z,75232.19
2023-05-23T17:45:16.802Z,75238.09
2023-05-23T17:46:50.111Z,75238.09
2023-05-23T17:48:34.443Z,75246.00
2023-05-23T17:50:12.442Z,75251.94
2023-05-23T17:51:46.259Z,75265.78
2023-05-23T17:53:20.249Z,75261.81
2023-05-23T17:54:53.621Z,75263.81
2023-05-23T17:56:26.744Z,75267.75
2023-05-23T17:58:01.675Z,75279.63
2023-05-23T17:59:35.287Z,75283.56
2023-05-23T18:01:09.101Z,75299.38
2023-05-23T18:02:42.870Z,75311.25
2023-05-23T18:04:16.678Z,75325.09
2023-05-23T18:05:50.531Z,75327.06
2023-05-23T18:07:24.062Z,75342.88
2023-05-23T18:08:57.607Z,75366.59
2023-05-23T18:10:31.193Z,75378.47
2023-05-23T18:12:05.407Z,75384.38
2023-05-23T18:13:38.589Z,75402.19
2023-05-23T18:15:12.396Z,75382.41
2023-05-23T18:16:46.062Z,75386.38
2023-05-23T18:18:19.446Z,75388.34
2023-05-23T18:19:53.327Z,75390.31
2023-05-23T18:21:30.264Z,75394.28
2023-05-23T18:23:04.387Z,75412.06
2023-05-23T18:24:38.414Z,75408.09
2023-05-23T18:26:11.496Z,75406.13
2023-05-23T18:27:45.123Z,75412.06
2023-05-23T18:29:18.631Z,75410.09
2023-05-23T18:30:52.179Z,75408.09
2023-05-23T18:32:25.712Z,75418.00
2023-05-23T18:33:59.454Z,75419.97
2023-05-23T18:35:33.015Z,75421.94
2023-05-23T18:37:06.434Z,75423.94
2023-05-23T18:38:41.151Z,75423.94
2023-05-23T18:40:15.302Z,75421.94
2023-05-23T18:41:48.748Z,75421.94
2023-05-23T18:43:23.518Z,75435.78